sensor_id;sensor_type;location;lat;lon;timestamp;P1;durP1;ratioP1;P2;durP2;ratioP2
61407;SDS011;47274;43.054;25.146;2023-11-18T00:01:17;13.37;;;6.50;;
61407;SDS011;47274;43.054;25.146;2023-11-18T00:03:58;12.07;;;6.30;;
61407;SDS011;47274;43.054;25.146;2023-11-18T00:06:45;11.17;;;5.97;;
61407;SDS011;47274;43.054;25.146;2023-11-18T00:09:28;13.38;;;6.50;;
61407;SDS011;47274;43.054;25.146;2023-11-18T00:12:16;12.80;;;6.60;;
61407;SDS011;47274;43.054;25.146;2023-11-18T00:14:50;12.10;;;6.63;;
61407;SDS011;47274;43.054;25.146;2023-11-18T00:17:34;14.67;;;7.30;;
61407;SDS011;47274;43.054;25.146;2023-11-18T00:20:17;12.63;;;6.53;;
61407;SDS011;47274;43.054;25.146;2023-11-18T00:22:58;13.10;;;6.43;;
61407;SDS011;47274;43.054;25.146;2023-11-18T00:25:45;13.63;;;6.83;;
61407;SDS011;47274;43.054;25.146;2023-11-18T00:28:30;15.83;;;7.67;;
61407;SDS011;47274;43.054;25.146;2023-11-18T00:31:12;12.73;;;6.63;;
61407;SDS011;47274;43.054;25.146;2023-11-18T00:33:52;13.67;;;6.70;;
61407;SDS011;47274;43.054;25.146;2023-11-18T00:36:31;16.17;;;7.57;;
61407;SDS011;47274;43.054;25.146;2023-11-18T00:39:10;16.17;;;8.07;;
61407;SDS011;47274;43.054;25.146;2023-11-18T00:44:29;14.70;;;7.57;;
61407;SDS011;47274;43.054;25.146;2023-11-18T00:47:13;14.50;;;7.57;;
61407;SDS011;47274;43.054;25.146;2023-11-18T00:49:51;15.47;;;8.10;;
61407;SDS011;47274;43.054;25.146;2023-11-18T00:52:38;16.27;;;7.43;;
61407;SDS011;47274;43.054;25.146;2023-11-18T00:55:25;14.80;;;7.13;;
61407;SDS011;47274;43.054;25.146;2023-11-18T00:58:19;16.63;;;8.37;;
61407;SDS011;47274;43.054;25.146;2023-11-18T01:00:58;16.77;;;8.97;;
61407;SDS011;47274;43.054;25.146;2023-11-18T01:03:36;14.60;;;7.17;;
61407;SDS011;47274;43.054;25.146;2023-11-18T01:06:24;18.47;;;9.10;;
61407;SDS011;47274;43.054;25.146;2023-11-18T01:09:05;18.20;;;8.60;;
61407;SDS011;47274;43.054;25.146;2023-11-18T01:11:49;20.30;;;10.63;;
61407;SDS011;47274;43.054;25.146;2023-11-18T01:14:30;19.83;;;10.17;;
61407;SDS011;47274;43.054;25.146;2023-11-18T01:17:12;17.07;;;8.70;;
61407;SDS011;47274;43.054;25.146;2023-11-18T01:19:54;17.50;;;8.65;;
61407;SDS011;47274;43.054;25.146;2023-11-18T01:22:36;17.13;;;8.57;;
61407;SDS011;47274;43.054;25.146;2023-11-18T01:25:20;16.57;;;7.83;;
61407;SDS011;47274;43.054;25.146;2023-11-18T01:28:01;15.73;;;8.00;;
61407;SDS011;47274;43.054;25.146;2023-11-18T01:30:50;16.13;;;7.97;;
61407;SDS011;47274;43.054;25.146;2023-11-18T01:33:25;15.53;;;7.37;;
61407;SDS011;47274;43.054;25.146;2023-11-18T01:36:10;14.88;;;7.40;;
61407;SDS011;47274;43.054;25.146;2023-11-18T01:38:58;13.47;;;7.00;;
61407;SDS011;47274;43.054;25.146;2023-11-18T01:41:41;13.77;;;6.60;;
61407;SDS011;47274;43.054;25.146;2023-11-18T01:44:26;14.33;;;6.60;;
61407;SDS011;47274;43.054;25.146;2023-11-18T01:47:13;14.10;;;6.90;;
61407;SDS011;47274;43.054;25.146;2023-11-18T01:49:55;12.77;;;6.40;;
61407;SDS011;47274;43.054;25.146;2023-11-18T01:52:34;11.77;;;6.00;;
61407;SDS011;47274;43.054;25.146;2023-11-18T01:55:22;11.87;;;5.73;;
61407;SDS011;47274;43.054;25.146;2023-11-18T01:58:07;11.23;;;5.80;;
61407;SDS011;47274;43.054;25.146;2023-11-18T02:00:44;12.13;;;5.80;;
61407;SDS011;47274;43.054;25.146;2023-11-18T02:03:29;9.77;;;4.93;;
61407;SDS011;47274;43.054;25.146;2023-11-18T02:06:09;10.80;;;5.33;;
61407;SDS011;47274;43.054;25.146;2023-11-18T02:08:55;12.07;;;5.70;;
61407;SDS011;47274;43.054;25.146;2023-11-18T02:11:44;10.55;;;5.85;;
61407;SDS011;47274;43.054;25.146;2023-11-18T02:14:29;9.60;;;5.00;;
61407;SDS011;47274;43.054;25.146;2023-11-18T02:17:27;12.63;;;5.80;;
61407;SDS011;47274;43.054;25.146;2023-11-18T02:20:14;13.07;;;5.73;;
61407;SDS011;47274;43.054;25.146;2023-11-18T02:22:55;10.50;;;5.57;;
61407;SDS011;47274;43.054;25.146;2023-11-18T02:25:34;9.67;;;5.13;;
61407;SDS011;47274;43.054;25.146;2023-11-18T02:28:19;9.90;;;5.23;;
61407;SDS011;47274;43.054;25.146;2023-11-18T02:31:03;11.20;;;5.50;;
61407;SDS011;47274;43.054;25.146;2023-11-18T02:34:05;8.83;;;4.60;;
61407;SDS011;47274;43.054;25.146;2023-11-18T02:36:59;8.47;;;4.80;;
61407;SDS011;47274;43.054;25.146;2023-11-18T02:39:48;9.87;;;4.83;;
61407;SDS011;47274;43.054;25.146;2023-11-18T02:42:47;9.83;;;4.63;;
61407;SDS011;47274;43.054;25.146;2023-11-18T02:45:33;7.83;;;4.07;;
61407;SDS011;47274;43.054;25.146;2023-11-18T02:48:22;10.80;;;4.57;;
61407;SDS011;47274;43.054;25.146;2023-11-18T02:51:10;8.77;;;4.50;;
61407;SDS011;47274;43.054;25.146;2023-11-18T02:53:54;7.33;;;3.77;;
61407;SDS011;47274;43.054;25.146;2023-11-18T02:56:35;8.97;;;4.53;;
61407;SDS011;47274;43.054;25.146;2023-11-18T02:59:20;7.30;;;3.97;;
61407;SDS011;47274;43.054;25.146;2023-11-18T03:02:02;8.02;;;3.83;;
61407;SDS011;47274;43.054;25.146;2023-11-18T03:04:51;5.87;;;3.57;;
61407;SDS011;47274;43.054;25.146;2023-11-18T03:07:39;5.37;;;3.53;;
61407;SDS011;47274;43.054;25.146;2023-11-18T03:10:22;5.37;;;3.40;;
61407;SDS011;47274;43.054;25.146;2023-11-18T03:13:03;5.43;;;3.53;;
61407;SDS011;47274;43.054;25.146;2023-11-18T03:15:45;6.63;;;3.47;;
61407;SDS011;47274;43.054;25.146;2023-11-18T03:18:37;4.70;;;3.33;;
61407;SDS011;47274;43.054;25.146;2023-11-18T03:21:19;4.83;;;3.30;;
61407;SDS011;47274;43.054;25.146;2023-11-18T03:23:56;6.10;;;3.00;;
61407;SDS011;47274;43.054;25.146;2023-11-18T03:26:42;4.40;;;2.97;;
61407;SDS011;47274;43.054;25.146;2023-11-18T03:29:15;4.50;;;3.20;;
61407;SDS011;47274;43.054;25.146;2023-11-18T03:31:44;3.03;;;2.70;;
61407;SDS011;47274;43.054;25.146;2023-11-18T03:34:25;4.83;;;2.90;;
61407;SDS011;47274;43.054;25.146;2023-11-18T03:37:05;3.13;;;2.83;;
61407;SDS011;47274;43.054;25.146;2023-11-18T03:39:53;3.73;;;3.00;;
61407;SDS011;47274;43.054;25.146;2023-11-18T03:42:46;3.00;;;2.70;;
61407;SDS011;47274;43.054;25.146;2023-11-18T03:45:34;4.13;;;2.83;;
61407;SDS011;47274;43.054;25.146;2023-11-18T03:48:26;4.77;;;2.77;;
61407;SDS011;47274;43.054;25.146;2023-11-18T03:51:07;4.30;;;2.70;;
61407;SDS011;47274;43.054;25.146;2023-11-18T03:53:47;4.13;;;2.60;;
61407;SDS011;47274;43.054;25.146;2023-11-18T03:56:45;3.00;;;2.70;;
61407;SDS011;47274;43.054;25.146;2023-11-18T03:59:30;6.17;;;3.30;;
61407;SDS011;47274;43.054;25.146;2023-11-18T04:02:15;2.90;;;2.57;;
61407;SDS011;47274;43.054;25.146;2023-11-18T04:05:03;3.17;;;2.87;;
61407;SDS011;47274;43.054;25.146;2023-11-18T04:07:55;4.23;;;2.43;;
61407;SDS011;47274;43.054;25.146;2023-11-18T04:10:43;5.00;;;2.40;;
61407;SDS011;47274;43.054;25.146;2023-11-18T04:13:24;3.67;;;2.60;;
61407;SDS011;47274;43.054;25.146;2023-11-18T04:16:08;2.67;;;2.47;;
61407;SDS011;47274;43.054;25.146;2023-11-18T04:18:49;2.95;;;2.47;;
61407;SDS011;47274;43.054;25.146;2023-11-18T04:21:27;2.93;;;2.23;;
61407;SDS011;47274;43.054;25.146;2023-11-18T04:23:55;3.03;;;2.30;;
61407;SDS011;47274;43.054;25.146;2023-11-18T04:26:37;3.00;;;2.30;;
61407;SDS011;47274;43.054;25.146;2023-11-18T04:29:16;2.93;;;2.13;;
61407;SDS011;47274;43.054;25.146;2023-11-18T04:32:00;2.53;;;2.30;;
61407;SDS011;47274;43.054;25.146;2023-11-18T04:34:42;4.10;;;2.27;;
61407;SDS011;47274;43.054;25.146;2023-11-18T04:37:21;2.50;;;2.30;;
61407;SDS011;47274;43.054;25.146;2023-11-18T04:40:06;2.27;;;2.07;;
61407;SDS011;47274;43.054;25.146;2023-11-18T04:42:48;1.90;;;1.80;;
61407;SDS011;47274;43.054;25.146;2023-11-18T04:45:31;2.55;;;2.35;;
61407;SDS011;47274;43.054;25.146;2023-11-18T04:48:07;2.57;;;2.20;;
61407;SDS011;47274;43.054;25.146;2023-11-18T04:50:52;2.17;;;1.97;;
61407;SDS011;47274;43.054;25.146;2023-11-18T04:53:42;2.10;;;2.00;;
61407;SDS011;47274;43.054;25.146;2023-11-18T04:56:27;1.80;;;1.70;;
61407;SDS011;47274;43.054;25.146;2023-11-18T04:59:07;2.37;;;1.57;;
61407;SDS011;47274;43.054;25.146;2023-11-18T05:01:55;1.80;;;1.70;;
61407;SDS011;47274;43.054;25.146;2023-11-18T05:04:39;1.70;;;1.60;;
61407;SDS011;47274;43.054;25.146;2023-11-18T05:07:20;1.70;;;1.60;;
61407;SDS011;47274;43.054;25.146;2023-11-18T05:10:11;1.80;;;1.70;;
61407;SDS011;47274;43.054;25.146;2023-11-18T05:13:04;1.90;;;1.70;;
61407;SDS011;47274;43.054;25.146;2023-11-18T05:15:49;1.80;;;1.70;;
61407;SDS011;47274;43.054;25.146;2023-11-18T05:18:36;3.53;;;2.47;;
61407;SDS011;47274;43.054;25.146;2023-11-18T05:21:17;3.97;;;2.97;;
61407;SDS011;47274;43.054;25.146;2023-11-18T05:23:54;2.63;;;2.10;;
61407;SDS011;47274;43.054;25.146;2023-11-18T05:26:42;2.07;;;1.80;;
61407;SDS011;47274;43.054;25.146;2023-11-18T05:29:26;2.73;;;2.13;;
61407;SDS011;47274;43.054;25.146;2023-11-18T05:32:11;2.13;;;2.03;;
61407;SDS011;47274;43.054;25.146;2023-11-18T05:34:53;2.13;;;1.85;;
61407;SDS011;47274;43.054;25.146;2023-11-18T05:37:38;2.20;;;1.90;;
61407;SDS011;47274;43.054;25.146;2023-11-18T05:40:22;2.30;;;2.00;;
61407;SDS011;47274;43.054;25.146;2023-11-18T05:43:12;1.70;;;1.60;;
61407;SDS011;47274;43.054;25.146;2023-11-18T05:45:57;1.63;;;1.53;;
61407;SDS011;47274;43.054;25.146;2023-11-18T05:48:51;1.97;;;1.80;;
61407;SDS011;47274;43.054;25.146;2023-11-18T05:51:31;3.60;;;1.93;;
61407;SDS011;47274;43.054;25.146;2023-11-18T05:53:59;2.63;;;2.10;;
61407;SDS011;47274;43.054;25.146;2023-11-18T05:56:40;6.93;;;3.27;;
61407;SDS011;47274;43.054;25.146;2023-11-18T05:59:22;9.40;;;3.60;;
61407;SDS011;47274;43.054;25.146;2023-11-18T06:02:06;10.43;;;3.87;;
61407;SDS011;47274;43.054;25.146;2023-11-18T06:04:52;3.50;;;2.70;;
61407;SDS011;47274;43.054;25.146;2023-11-18T06:07:40;10.23;;;4.67;;
61407;SDS011;47274;43.054;25.146;2023-11-18T06:10:21;6.53;;;3.53;;
61407;SDS011;47274;43.054;25.146;2023-11-18T06:13:19;6.47;;;3.50;;
61407;SDS011;47274;43.054;25.146;2023-11-18T06:16:04;2.50;;;2.30;;
61407;SDS011;47274;43.054;25.146;2023-11-18T06:19:02;3.27;;;2.50;;
61407;SDS011;47274;43.054;25.146;2023-11-18T06:21:44;4.23;;;3.43;;
61407;SDS011;47274;43.054;25.146;2023-11-18T06:24:26;2.20;;;2.00;;
61407;SDS011;47274;43.054;25.146;2023-11-18T06:27:05;3.80;;;2.37;;
61407;SDS011;47274;43.054;25.146;2023-11-18T06:29:55;3.97;;;2.37;;
61407;SDS011;47274;43.054;25.146;2023-11-18T06:32:39;3.30;;;2.27;;
61407;SDS011;47274;43.054;25.146;2023-11-18T06:35:22;3.45;;;2.42;;
61407;SDS011;47274;43.054;25.146;2023-11-18T06:38:10;2.67;;;2.20;;
61407;SDS011;47274;43.054;25.146;2023-11-18T06:40:49;7.45;;;2.33;;
61407;SDS011;47274;43.054;25.146;2023-11-18T06:43:38;4.00;;;2.70;;
61407;SDS011;47274;43.054;25.146;2023-11-18T06:46:30;3.30;;;2.10;;
61407;SDS011;47274;43.054;25.146;2023-11-18T06:49:13;6.43;;;3.30;;
61407;SDS011;47274;43.054;25.146;2023-11-18T06:51:48;3.20;;;2.30;;
61407;SDS011;47274;43.054;25.146;2023-11-18T06:54:40;2.30;;;2.10;;
61407;SDS011;47274;43.054;25.146;2023-11-18T06:57:26;7.93;;;3.45;;
61407;SDS011;47274;43.054;25.146;2023-11-18T07:00:02;2.43;;;2.23;;
61407;SDS011;47274;43.054;25.146;2023-11-18T07:02:46;2.73;;;2.40;;
61407;SDS011;47274;43.054;25.146;2023-11-18T07:05:24;3.10;;;2.50;;
61407;SDS011;47274;43.054;25.146;2023-11-18T07:08:09;6.67;;;3.43;;
61407;SDS011;47274;43.054;25.146;2023-11-18T07:10:48;3.43;;;2.57;;
61407;SDS011;47274;43.054;25.146;2023-11-18T07:13:20;9.33;;;3.63;;
61407;SDS011;47274;43.054;25.146;2023-11-18T07:16:05;4.80;;;2.90;;
61407;SDS011;47274;43.054;25.146;2023-11-18T07:18:46;3.50;;;2.80;;
61407;SDS011;47274;43.054;25.146;2023-11-18T07:21:31;6.13;;;2.80;;
61407;SDS011;47274;43.054;25.146;2023-11-18T07:24:16;3.53;;;2.73;;
61407;SDS011;47274;43.054;25.146;2023-11-18T07:27:03;3.90;;;2.60;;
61407;SDS011;47274;43.054;25.146;2023-11-18T07:29:51;6.90;;;3.63;;
61407;SDS011;47274;43.054;25.146;2023-11-18T07:32:33;4.23;;;3.00;;
61407;SDS011;47274;43.054;25.146;2023-11-18T07:38:02;4.57;;;3.08;;
61407;SDS011;47274;43.054;25.146;2023-11-18T07:40:48;4.03;;;2.97;;
61407;SDS011;47274;43.054;25.146;2023-11-18T07:43:34;6.23;;;3.70;;
61407;SDS011;47274;43.054;25.146;2023-11-18T07:46:21;5.30;;;3.80;;
61407;SDS011;47274;43.054;25.146;2023-11-18T07:49:11;3.77;;;2.60;;
61407;SDS011;47274;43.054;25.146;2023-11-18T07:51:39;10.50;;;4.40;;
61407;SDS011;47274;43.054;25.146;2023-11-18T07:54:22;5.13;;;3.00;;
61407;SDS011;47274;43.054;25.146;2023-11-18T07:56:50;4.97;;;3.03;;
61407;SDS011;47274;43.054;25.146;2023-11-18T07:59:16;3.00;;;2.30;;
61407;SDS011;47274;43.054;25.146;2023-11-18T08:01:43;18.47;;;7.77;;
61407;SDS011;47274;43.054;25.146;2023-11-18T08:04:11;3.67;;;2.77;;
61407;SDS011;47274;43.054;25.146;2023-11-18T08:06:40;14.67;;;5.27;;
61407;SDS011;47274;43.054;25.146;2023-11-18T08:09:08;6.90;;;3.57;;
61407;SDS011;47274;43.054;25.146;2023-11-18T08:11:44;12.07;;;4.43;;
61407;SDS011;47274;43.054;25.146;2023-11-18T08:14:28;5.00;;;3.23;;
61407;SDS011;47274;43.054;25.146;2023-11-18T08:17:07;6.32;;;3.35;;
61407;SDS011;47274;43.054;25.146;2023-11-18T08:19:45;2.65;;;2.30;;
61407;SDS011;47274;43.054;25.146;2023-11-18T08:22:20;7.60;;;3.33;;
61407;SDS011;47274;43.054;25.146;2023-11-18T08:25:03;6.18;;;3.00;;
61407;SDS011;47274;43.054;25.146;2023-11-18T08:27:54;12.50;;;4.60;;
61407;SDS011;47274;43.054;25.146;2023-11-18T08:30:40;8.20;;;3.83;;
61407;SDS011;47274;43.054;25.146;2023-11-18T08:33:22;6.93;;;3.50;;
61407;SDS011;47274;43.054;25.146;2023-11-18T08:36:05;9.63;;;4.17;;
61407;SDS011;47274;43.054;25.146;2023-11-18T08:38:47;3.90;;;2.40;;
61407;SDS011;47274;43.054;25.146;2023-11-18T08:41:34;5.70;;;3.30;;
61407;SDS011;47274;43.054;25.146;2023-11-18T08:44:13;11.73;;;4.82;;
61407;SDS011;47274;43.054;25.146;2023-11-18T08:47:03;16.03;;;5.90;;
61407;SDS011;47274;43.054;25.146;2023-11-18T08:49:52;7.67;;;3.50;;
61407;SDS011;47274;43.054;25.146;2023-11-18T08:52:54;5.27;;;2.60;;
61407;SDS011;47274;43.054;25.146;2023-11-18T08:55:41;6.53;;;3.60;;
61407;SDS011;47274;43.054;25.146;2023-11-18T08:58:39;4.93;;;3.10;;
61407;SDS011;47274;43.054;25.146;2023-11-18T09:01:45;5.63;;;3.17;;
61407;SDS011;47274;43.054;25.146;2023-11-18T09:04:26;3.70;;;2.67;;
61407;SDS011;47274;43.054;25.146;2023-11-18T09:06:55;3.33;;;2.83;;
61407;SDS011;47274;43.054;25.146;2023-11-18T09:09:37;3.17;;;2.87;;
61407;SDS011;47274;43.054;25.146;2023-11-18T09:12:20;3.83;;;3.03;;
61407;SDS011;47274;43.054;25.146;2023-11-18T09:15:08;6.27;;;3.40;;
61407;SDS011;47274;43.054;25.146;2023-11-18T09:17:52;11.87;;;5.00;;
61407;SDS011;47274;43.054;25.146;2023-11-18T09:20:31;7.40;;;3.70;;
61407;SDS011;47274;43.054;25.146;2023-11-18T09:23:19;12.37;;;6.23;;
61407;SDS011;47274;43.054;25.146;2023-11-18T09:25:55;5.00;;;2.80;;
61407;SDS011;47274;43.054;25.146;2023-11-18T09:28:38;5.83;;;3.00;;
61407;SDS011;47274;43.054;25.146;2023-11-18T09:31:26;2.93;;;2.57;;
61407;SDS011;47274;43.054;25.146;2023-11-18T09:34:14;4.43;;;2.40;;
61407;SDS011;47274;43.054;25.146;2023-11-18T09:37:02;3.30;;;3.00;;
61407;SDS011;47274;43.054;25.146;2023-11-18T09:39:42;2.97;;;2.10;;
61407;SDS011;47274;43.054;25.146;2023-11-18T09:42:27;3.53;;;2.50;;
61407;SDS011;47274;43.054;25.146;2023-11-18T09:45:09;4.67;;;2.20;;
61407;SDS011;47274;43.054;25.146;2023-11-18T09:47:49;4.70;;;2.60;;
61407;SDS011;47274;43.054;25.146;2023-11-18T09:50:36;5.60;;;3.03;;
61407;SDS011;47274;43.054;25.146;2023-11-18T09:53:25;4.57;;;2.70;;
61407;SDS011;47274;43.054;25.146;2023-11-18T09:56:20;6.03;;;3.10;;
61407;SDS011;47274;43.054;25.146;2023-11-18T09:59:19;3.90;;;2.53;;
61407;SDS011;47274;43.054;25.146;2023-11-18T10:01:58;4.45;;;2.08;;
61407;SDS011;47274;43.054;25.146;2023-11-18T10:04:40;3.77;;;2.20;;
61407;SDS011;47274;43.054;25.146;2023-11-18T10:07:23;1.90;;;1.80;;
61407;SDS011;47274;43.054;25.146;2023-11-18T10:10:08;4.93;;;2.27;;
61407;SDS011;47274;43.054;25.146;2023-11-18T10:12:50;1.60;;;1.50;;
61407;SDS011;47274;43.054;25.146;2023-11-18T10:15:23;1.90;;;1.73;;
61407;SDS011;47274;43.054;25.146;2023-11-18T10:17:53;3.20;;;1.57;;
61407;SDS011;47274;43.054;25.146;2023-11-18T10:20:44;2.10;;;1.90;;
61407;SDS011;47274;43.054;25.146;2023-11-18T10:23:12;3.83;;;2.10;;
61407;SDS011;47274;43.054;25.146;2023-11-18T10:25:48;3.70;;;2.28;;
61407;SDS011;47274;43.054;25.146;2023-11-18T10:28:21;2.40;;;2.10;;
61407;SDS011;47274;43.054;25.146;2023-11-18T10:30:50;4.53;;;2.67;;
61407;SDS011;47274;43.054;25.146;2023-11-18T10:33:19;2.93;;;2.10;;
61407;SDS011;47274;43.054;25.146;2023-11-18T10:35:50;2.77;;;2.30;;
61407;SDS011;47274;43.054;25.146;2023-11-18T10:38:17;3.03;;;2.30;;
61407;SDS011;47274;43.054;25.146;2023-11-18T10:40:43;2.10;;;1.90;;
61407;SDS011;47274;43.054;25.146;2023-11-18T10:43:10;5.27;;;2.23;;
61407;SDS011;47274;43.054;25.146;2023-11-18T10:45:37;6.20;;;2.80;;
61407;SDS011;47274;43.054;25.146;2023-11-18T10:48:06;2.77;;;2.00;;
61407;SDS011;47274;43.054;25.146;2023-11-18T10:50:33;17.33;;;5.30;;
61407;SDS011;47274;43.054;25.146;2023-11-18T10:53:00;3.23;;;2.33;;
61407;SDS011;47274;43.054;25.146;2023-11-18T10:55:37;2.80;;;2.50;;
61407;SDS011;47274;43.054;25.146;2023-11-18T10:58:03;3.40;;;2.50;;
61407;SDS011;47274;43.054;25.146;2023-11-18T11:00:45;3.30;;;2.33;;
61407;SDS011;47274;43.054;25.146;2023-11-18T11:03:15;4.57;;;2.67;;
61407;SDS011;47274;43.054;25.146;2023-11-18T11:05:41;8.60;;;2.83;;
61407;SDS011;47274;43.054;25.146;2023-11-18T11:08:13;6.07;;;2.83;;
61407;SDS011;47274;43.054;25.146;2023-11-18T11:10:42;6.00;;;3.30;;
61407;SDS011;47274;43.054;25.146;2023-11-18T11:13:13;3.50;;;2.42;;
61407;SDS011;47274;43.054;25.146;2023-11-18T11:15:43;6.27;;;2.83;;
61407;SDS011;47274;43.054;25.146;2023-11-18T11:18:11;5.07;;;3.00;;
61407;SDS011;47274;43.054;25.146;2023-11-18T11:20:41;15.47;;;4.60;;
61407;SDS011;47274;43.054;25.146;2023-11-18T11:23:28;5.63;;;2.87;;
61407;SDS011;47274;43.054;25.146;2023-11-18T11:28:40;5.37;;;3.07;;
61407;SDS011;47274;43.054;25.146;2023-11-18T11:36:46;3.83;;;2.67;;
61407;SDS011;47274;43.054;25.146;2023-11-18T11:39:17;5.87;;;3.17;;
61407;SDS011;47274;43.054;25.146;2023-11-18T11:41:53;4.27;;;3.20;;
61407;SDS011;47274;43.054;25.146;2023-11-18T11:44:21;5.57;;;3.37;;
61407;SDS011;47274;43.054;25.146;2023-11-18T11:46:56;6.13;;;3.37;;
61407;SDS011;47274;43.054;25.146;2023-11-18T11:49:25;4.90;;;3.13;;
61407;SDS011;47274;43.054;25.146;2023-11-18T11:52:19;4.03;;;3.13;;
61407;SDS011;47274;43.054;25.146;2023-11-18T11:58:29;3.77;;;3.10;;
61407;SDS011;47274;43.054;25.146;2023-11-18T12:04:02;4.40;;;3.07;;
61407;SDS011;47274;43.054;25.146;2023-11-18T12:06:37;5.60;;;3.22;;
61407;SDS011;47274;43.054;25.146;2023-11-18T12:09:08;5.73;;;3.40;;
61407;SDS011;47274;43.054;25.146;2023-11-18T12:11:34;4.83;;;3.30;;
61407;SDS011;47274;43.054;25.146;2023-11-18T12:14:13;7.30;;;3.87;;
61407;SDS011;47274;43.054;25.146;2023-11-18T12:17:16;6.57;;;3.88;;
61407;SDS011;47274;43.054;25.146;2023-11-18T12:20:37;11.30;;;4.90;;
61407;SDS011;47274;43.054;25.146;2023-11-18T12:23:30;11.70;;;4.63;;
61407;SDS011;47274;43.054;25.146;2023-11-18T12:26:01;11.00;;;4.87;;
61407;SDS011;47274;43.054;25.146;2023-11-18T12:28:58;10.10;;;4.47;;
61407;SDS011;47274;43.054;25.146;2023-11-18T12:31:46;24.97;;;10.73;;
61407;SDS011;47274;43.054;25.146;2023-11-18T12:34:19;31.20;;;12.53;;
61407;SDS011;47274;43.054;25.146;2023-11-18T12:36:55;20.27;;;7.97;;
61407;SDS011;47274;43.054;25.146;2023-11-18T12:39:59;28.17;;;11.70;;
61407;SDS011;47274;43.054;25.146;2023-11-18T12:43:05;15.90;;;6.43;;
61407;SDS011;47274;43.054;25.146;2023-11-18T12:48:50;13.87;;;5.40;;
61407;SDS011;47274;43.054;25.146;2023-11-18T12:51:23;10.85;;;4.95;;
61407;SDS011;47274;43.054;25.146;2023-11-18T12:53:51;9.63;;;4.87;;
61407;SDS011;47274;43.054;25.146;2023-11-18T12:56:21;8.43;;;5.30;;
61407;SDS011;47274;43.054;25.146;2023-11-18T12:58:51;8.33;;;4.30;;
61407;SDS011;47274;43.054;25.146;2023-11-18T13:01:23;6.07;;;3.93;;
61407;SDS011;47274;43.054;25.146;2023-11-18T13:03:50;10.17;;;5.10;;
61407;SDS011;47274;43.054;25.146;2023-11-18T13:06:18;7.47;;;4.40;;
61407;SDS011;47274;43.054;25.146;2023-11-18T13:08:53;9.90;;;4.60;;
61407;SDS011;47274;43.054;25.146;2023-11-18T13:11:23;7.00;;;3.87;;
61407;SDS011;47274;43.054;25.146;2023-11-18T13:13:52;7.27;;;4.47;;
61407;SDS011;47274;43.054;25.146;2023-11-18T13:16:19;6.67;;;4.30;;
61407;SDS011;47274;43.054;25.146;2023-11-18T13:18:45;6.80;;;3.93;;
61407;SDS011;47274;43.054;25.146;2023-11-18T13:21:22;20.83;;;7.33;;
61407;SDS011;47274;43.054;25.146;2023-11-18T13:24:03;11.73;;;5.20;;
61407;SDS011;47274;43.054;25.146;2023-11-18T13:26:42;11.23;;;5.40;;
61407;SDS011;47274;43.054;25.146;2023-11-18T13:29:17;9.53;;;5.13;;
61407;SDS011;47274;43.054;25.146;2023-11-18T13:31:43;9.77;;;4.90;;
61407;SDS011;47274;43.054;25.146;2023-11-18T13:34:20;9.10;;;4.70;;
61407;SDS011;47274;43.054;25.146;2023-11-18T13:37:07;10.83;;;5.43;;
61407;SDS011;47274;43.054;25.146;2023-11-18T13:39:56;8.77;;;4.50;;
61407;SDS011;47274;43.054;25.146;2023-11-18T13:42:27;8.53;;;4.80;;
61407;SDS011;47274;43.054;25.146;2023-11-18T13:45:18;8.37;;;4.90;;
61407;SDS011;47274;43.054;25.146;2023-11-18T13:47:54;11.50;;;5.03;;
61407;SDS011;47274;43.054;25.146;2023-11-18T13:50:22;8.83;;;4.70;;
61407;SDS011;47274;43.054;25.146;2023-11-18T13:52:58;27.67;;;10.17;;
61407;SDS011;47274;43.054;25.146;2023-11-18T13:55:25;12.03;;;5.17;;
61407;SDS011;47274;43.054;25.146;2023-11-18T13:57:54;12.87;;;5.47;;
61407;SDS011;47274;43.054;25.146;2023-11-18T14:00:31;10.70;;;4.97;;
61407;SDS011;47274;43.054;25.146;2023-11-18T14:03:10;11.87;;;4.80;;
61407;SDS011;47274;43.054;25.146;2023-11-18T14:05:39;11.43;;;5.20;;
61407;SDS011;47274;43.054;25.146;2023-11-18T14:08:21;7.90;;;4.17;;
61407;SDS011;47274;43.054;25.146;2023-11-18T14:11:01;10.67;;;4.80;;
61407;SDS011;47274;43.054;25.146;2023-11-18T14:13:39;10.83;;;5.53;;
61407;SDS011;47274;43.054;25.146;2023-11-18T14:16:05;9.90;;;4.80;;
61407;SDS011;47274;43.054;25.146;2023-11-18T14:18:37;11.52;;;4.80;;
61407;SDS011;47274;43.054;25.146;2023-11-18T14:21:06;11.70;;;5.37;;
61407;SDS011;47274;43.054;25.146;2023-11-18T14:23:41;27.83;;;11.27;;
61407;SDS011;47274;43.054;25.146;2023-11-18T14:26:23;11.53;;;5.20;;
61407;SDS011;47274;43.054;25.146;2023-11-18T14:29:03;12.00;;;5.50;;
61407;SDS011;47274;43.054;25.146;2023-11-18T14:31:53;10.13;;;5.20;;
61407;SDS011;47274;43.054;25.146;2023-11-18T14:34:35;14.67;;;6.20;;
61407;SDS011;47274;43.054;25.146;2023-11-18T14:37:01;11.10;;;5.13;;
61407;SDS011;47274;43.054;25.146;2023-11-18T14:39:27;13.03;;;5.83;;
61407;SDS011;47274;43.054;25.146;2023-11-18T14:41:54;15.83;;;6.43;;
61407;SDS011;47274;43.054;25.146;2023-11-18T14:44:21;17.43;;;7.43;;
61407;SDS011;47274;43.054;25.146;2023-11-18T14:46:47;18.17;;;7.20;;
61407;SDS011;47274;43.054;25.146;2023-11-18T14:49:13;14.87;;;6.27;;
61407;SDS011;47274;43.054;25.146;2023-11-18T14:51:41;16.03;;;6.27;;
61407;SDS011;47274;43.054;25.146;2023-11-18T14:54:08;16.00;;;6.40;;
61407;SDS011;47274;43.054;25.146;2023-11-18T14:56:34;17.57;;;7.80;;
61407;SDS011;47274;43.054;25.146;2023-11-18T14:59:00;18.00;;;7.50;;
61407;SDS011;47274;43.054;25.146;2023-11-18T15:01:40;15.20;;;6.80;;
61407;SDS011;47274;43.054;25.146;2023-11-18T15:04:18;14.63;;;6.87;;
61407;SDS011;47274;43.054;25.146;2023-11-18T15:06:54;16.60;;;7.40;;
61407;SDS011;47274;43.054;25.146;2023-11-18T15:09:21;23.37;;;10.10;;
61407;SDS011;47274;43.054;25.146;2023-11-18T15:11:50;17.90;;;8.33;;
61407;SDS011;47274;43.054;25.146;2023-11-18T15:14:29;16.40;;;7.70;;
61407;SDS011;47274;43.054;25.146;2023-11-18T15:16:54;15.33;;;6.87;;
61407;SDS011;47274;43.054;25.146;2023-11-18T15:19:26;16.67;;;7.80;;
61407;SDS011;47274;43.054;25.146;2023-11-18T15:21:52;16.93;;;7.70;;
61407;SDS011;47274;43.054;25.146;2023-11-18T15:24:18;17.27;;;8.00;;
61407;SDS011;47274;43.054;25.146;2023-11-18T15:26:46;17.60;;;8.37;;
61407;SDS011;47274;43.054;25.146;2023-11-18T15:29:12;17.13;;;8.27;;
61407;SDS011;47274;43.054;25.146;2023-11-18T15:31:42;15.33;;;7.40;;
61407;SDS011;47274;43.054;25.146;2023-11-18T15:34:12;15.98;;;7.60;;
61407;SDS011;47274;43.054;25.146;2023-11-18T15:36:41;17.27;;;8.27;;
61407;SDS011;47274;43.054;25.146;2023-11-18T15:39:14;15.40;;;7.67;;
61407;SDS011;47274;43.054;25.146;2023-11-18T15:42:10;15.17;;;7.47;;
61407;SDS011;47274;43.054;25.146;2023-11-18T15:44:59;14.97;;;6.83;;
61407;SDS011;47274;43.054;25.146;2023-11-18T15:47:40;15.00;;;7.20;;
61407;SDS011;47274;43.054;25.146;2023-11-18T15:50:11;23.23;;;11.03;;
61407;SDS011;47274;43.054;25.146;2023-11-18T15:52:42;16.77;;;8.10;;
61407;SDS011;47274;43.054;25.146;2023-11-18T15:55:08;13.83;;;7.17;;
61407;SDS011;47274;43.054;25.146;2023-11-18T15:57:39;16.33;;;7.27;;
61407;SDS011;47274;43.054;25.146;2023-11-18T16:00:11;15.57;;;7.40;;
61407;SDS011;47274;43.054;25.146;2023-11-18T16:02:43;14.67;;;7.03;;
61407;SDS011;47274;43.054;25.146;2023-11-18T16:05:13;13.17;;;6.30;;
61407;SDS011;47274;43.054;25.146;2023-11-18T16:08:02;13.77;;;6.43;;